sensor_id;sensor_type;location;lat;lon;timestamp;P1;durP1;ratioP1;P2;durP2;ratioP2
62435;SDS011;48480;50.252;18.848;2022-11-15T00:00:48;40.90;;;14.90;;
62435;SDS011;48480;50.252;18.848;2022-11-15T00:03:14;32.20;;;16.90;;
62435;SDS011;48480;50.252;18.848;2022-11-15T00:05:44;37.10;;;17.00;;
62435;SDS011;48480;50.252;18.848;2022-11-15T00:08:10;35.20;;;17.90;;
62435;SDS011;48480;50.252;18.848;2022-11-15T00:10:36;34.40;;;16.80;;
62435;SDS011;48480;50.252;18.848;2022-11-15T00:13:08;44.90;;;16.20;;
62435;SDS011;48480;50.252;18.848;2022-11-15T00:15:36;37.10;;;16.80;;
62435;SDS011;48480;50.252;18.848;2022-11-15T00:18:03;39.30;;;17.50;;
62435;SDS011;48480;50.252;18.848;2022-11-15T00:20:30;38.60;;;16.80;;
62435;SDS011;48480;50.252;18.848;2022-11-15T00:22:55;41.20;;;15.40;;
62435;SDS011;48480;50.252;18.848;2022-11-15T00:25:21;35.10;;;15.90;;
62435;SDS011;48480;50.252;18.848;2022-11-15T00:27:46;37.70;;;17.10;;
62435;SDS011;48480;50.252;18.848;2022-11-15T00:30:12;37.90;;;13.80;;
62435;SDS011;48480;50.252;18.848;2022-11-15T00:32:37;39.30;;;14.90;;
62435;SDS011;48480;50.252;18.848;2022-11-15T00:35:03;36.20;;;13.90;;
62435;SDS011;48480;50.252;18.848;2022-11-15T00:37:29;43.30;;;12.70;;
62435;SDS011;48480;50.252;18.848;2022-11-15T00:39:54;30.50;;;12.80;;
62435;SDS011;48480;50.252;18.848;2022-11-15T00:42:19;25.30;;;10.50;;
62435;SDS011;48480;50.252;18.848;2022-11-15T00:44:45;32.00;;;12.20;;
62435;SDS011;48480;50.252;18.848;2022-11-15T00:47:11;22.70;;;11.80;;
62435;SDS011;48480;50.252;18.848;2022-11-15T00:49:36;29.10;;;12.80;;
62435;SDS011;48480;50.252;18.848;2022-11-15T00:52:02;28.30;;;14.40;;
62435;SDS011;48480;50.252;18.848;2022-11-15T00:54:27;22.60;;;12.60;;
62435;SDS011;48480;50.252;18.848;2022-11-15T00:56:53;30.30;;;14.20;;
62435;SDS011;48480;50.252;18.848;2022-11-15T00:59:19;23.70;;;12.70;;
62435;SDS011;48480;50.252;18.848;2022-11-15T01:01:44;26.90;;;14.10;;
62435;SDS011;48480;50.252;18.848;2022-11-15T01:04:10;28.60;;;13.60;;
62435;SDS011;48480;50.252;18.848;2022-11-15T01:06:35;30.10;;;12.80;;
62435;SDS011;48480;50.252;18.848;2022-11-15T01:09:01;26.20;;;13.10;;
62435;SDS011;48480;50.252;18.848;2022-11-15T01:11:26;39.50;;;13.80;;
62435;SDS011;48480;50.252;18.848;2022-11-15T01:13:51;33.70;;;12.50;;
62435;SDS011;48480;50.252;18.848;2022-11-15T01:16:17;32.90;;;12.90;;
62435;SDS011;48480;50.252;18.848;2022-11-15T01:18:44;32.60;;;14.30;;
62435;SDS011;48480;50.252;18.848;2022-11-15T01:21:11;27.10;;;13.30;;
62435;SDS011;48480;50.252;18.848;2022-11-15T01:23:38;27.90;;;13.30;;
62435;SDS011;48480;50.252;18.848;2022-11-15T01:26:05;27.90;;;13.70;;
62435;SDS011;48480;50.252;18.848;2022-11-15T01:28:34;29.20;;;14.30;;
62435;SDS011;48480;50.252;18.848;2022-11-15T01:31:01;25.30;;;12.80;;
62435;SDS011;48480;50.252;18.848;2022-11-15T01:33:33;28.40;;;13.20;;
62435;SDS011;48480;50.252;18.848;2022-11-15T01:36:08;23.50;;;13.60;;
62435;SDS011;48480;50.252;18.848;2022-11-15T01:38:37;29.10;;;12.10;;
62435;SDS011;48480;50.252;18.848;2022-11-15T01:41:03;23.90;;;11.90;;
62435;SDS011;48480;50.252;18.848;2022-11-15T01:43:30;25.40;;;13.10;;
62435;SDS011;48480;50.252;18.848;2022-11-15T01:46:02;25.00;;;14.30;;
62435;SDS011;48480;50.252;18.848;2022-11-15T01:48:34;21.00;;;12.70;;
62435;SDS011;48480;50.252;18.848;2022-11-15T01:51:00;21.60;;;12.90;;
62435;SDS011;48480;50.252;18.848;2022-11-15T01:53:30;25.70;;;12.10;;
62435;SDS011;48480;50.252;18.848;2022-11-15T01:56:09;24.80;;;12.80;;
62435;SDS011;48480;50.252;18.848;2022-11-15T01:58:38;23.00;;;12.70;;
62435;SDS011;48480;50.252;18.848;2022-11-15T02:01:06;22.60;;;13.80;;
62435;SDS011;48480;50.252;18.848;2022-11-15T02:03:54;20.20;;;12.60;;
62435;SDS011;48480;50.252;18.848;2022-11-15T02:06:21;22.00;;;12.80;;
62435;SDS011;48480;50.252;18.848;2022-11-15T02:08:47;23.00;;;13.00;;
62435;SDS011;48480;50.252;18.848;2022-11-15T02:11:14;22.40;;;12.40;;
62435;SDS011;48480;50.252;18.848;2022-11-15T02:13:39;23.90;;;13.30;;
62435;SDS011;48480;50.252;18.848;2022-11-15T02:18:55;20.70;;;12.20;;
62435;SDS011;48480;50.252;18.848;2022-11-15T02:21:42;25.80;;;12.80;;
62435;SDS011;48480;50.252;18.848;2022-11-15T02:42:00;20.30;;;11.10;;
62435;SDS011;48480;50.252;18.848;2022-11-15T02:44:55;19.90;;;10.90;;
62435;SDS011;48480;50.252;18.848;2022-11-15T02:47:23;18.20;;;10.50;;
62435;SDS011;48480;50.252;18.848;2022-11-15T02:49:53;20.20;;;11.20;;
62435;SDS011;48480;50.252;18.848;2022-11-15T02:52:25;21.60;;;11.80;;
62435;SDS011;48480;50.252;18.848;2022-11-15T02:54:54;19.90;;;11.60;;
62435;SDS011;48480;50.252;18.848;2022-11-15T03:05:34;21.20;;;12.20;;
62435;SDS011;48480;50.252;18.848;2022-11-15T03:08:03;22.70;;;12.10;;
62435;SDS011;48480;50.252;18.848;2022-11-15T03:16:03;26.00;;;12.30;;
62435;SDS011;48480;50.252;18.848;2022-11-15T03:18:40;27.10;;;11.60;;
62435;SDS011;48480;50.252;18.848;2022-11-15T03:21:09;19.20;;;11.20;;
62435;SDS011;48480;50.252;18.848;2022-11-15T03:23:37;21.10;;;11.30;;
62435;SDS011;48480;50.252;18.848;2022-11-15T03:26:05;25.50;;;11.00;;
62435;SDS011;48480;50.252;18.848;2022-11-15T03:28:36;24.50;;;12.30;;
62435;SDS011;48480;50.252;18.848;2022-11-15T03:31:05;20.20;;;11.00;;
62435;SDS011;48480;50.252;18.848;2022-11-15T03:33:53;24.30;;;12.30;;
62435;SDS011;48480;50.252;18.848;2022-11-15T03:36:22;22.30;;;11.00;;
62435;SDS011;48480;50.252;18.848;2022-11-15T03:38:51;19.90;;;11.10;;
62435;SDS011;48480;50.252;18.848;2022-11-15T03:41:24;26.30;;;12.70;;
62435;SDS011;48480;50.252;18.848;2022-11-15T03:44:01;24.10;;;10.60;;
62435;SDS011;48480;50.252;18.848;2022-11-15T03:46:39;23.40;;;11.50;;
62435;SDS011;48480;50.252;18.848;2022-11-15T03:49:19;22.40;;;12.40;;
62435;SDS011;48480;50.252;18.848;2022-11-15T03:51:51;22.60;;;12.20;;
62435;SDS011;48480;50.252;18.848;2022-11-15T03:54:16;26.50;;;11.90;;
62435;SDS011;48480;50.252;18.848;2022-11-15T03:56:42;25.90;;;14.10;;
62435;SDS011;48480;50.252;18.848;2022-11-15T03:59:07;23.40;;;12.50;;
62435;SDS011;48480;50.252;18.848;2022-11-15T04:01:33;23.20;;;12.90;;
62435;SDS011;48480;50.252;18.848;2022-11-15T04:03:58;27.90;;;13.50;;
62435;SDS011;48480;50.252;18.848;2022-11-15T04:06:24;23.70;;;13.70;;
62435;SDS011;48480;50.252;18.848;2022-11-15T04:08:52;30.70;;;13.80;;
62435;SDS011;48480;50.252;18.848;2022-11-15T04:11:18;21.80;;;10.80;;
62435;SDS011;48480;50.252;18.848;2022-11-15T04:13:44;27.10;;;12.30;;
62435;SDS011;48480;50.252;18.848;2022-11-15T04:16:09;22.80;;;12.20;;
62435;SDS011;48480;50.252;18.848;2022-11-15T04:18:35;22.50;;;10.10;;
62435;SDS011;48480;50.252;18.848;2022-11-15T04:21:04;25.80;;;12.10;;
62435;SDS011;48480;50.252;18.848;2022-11-15T04:23:49;22.70;;;12.70;;
62435;SDS011;48480;50.252;18.848;2022-11-15T04:28:55;18.50;;;11.40;;
62435;SDS011;48480;50.252;18.848;2022-11-15T04:31:39;23.40;;;11.10;;
62435;SDS011;48480;50.252;18.848;2022-11-15T04:34:09;27.90;;;13.40;;
62435;SDS011;48480;50.252;18.848;2022-11-15T04:36:37;24.90;;;12.40;;
62435;SDS011;48480;50.252;18.848;2022-11-15T04:39:21;25.70;;;12.40;;
62435;SDS011;48480;50.252;18.848;2022-11-15T04:41:47;28.10;;;13.40;;
62435;SDS011;48480;50.252;18.848;2022-11-15T04:44:13;20.10;;;11.40;;
62435;SDS011;48480;50.252;18.848;2022-11-15T04:46:42;25.80;;;13.10;;
62435;SDS011;48480;50.252;18.848;2022-11-15T04:49:10;25.40;;;14.10;;
62435;SDS011;48480;50.252;18.848;2022-11-15T04:51:36;25.40;;;13.90;;
62435;SDS011;48480;50.252;18.848;2022-11-15T04:54:02;26.70;;;13.30;;
62435;SDS011;48480;50.252;18.848;2022-11-15T04:56:28;28.50;;;12.80;;
62435;SDS011;48480;50.252;18.848;2022-11-15T04:58:54;26.60;;;13.80;;
62435;SDS011;48480;50.252;18.848;2022-11-15T05:01:19;24.10;;;12.80;;
62435;SDS011;48480;50.252;18.848;2022-11-15T05:03:45;32.00;;;12.50;;
62435;SDS011;48480;50.252;18.848;2022-11-15T05:06:29;26.90;;;12.30;;
62435;SDS011;48480;50.252;18.848;2022-11-15T05:08:55;27.00;;;12.40;;
62435;SDS011;48480;50.252;18.848;2022-11-15T05:11:20;26.30;;;13.20;;
62435;SDS011;48480;50.252;18.848;2022-11-15T05:13:46;25.00;;;12.50;;
62435;SDS011;48480;50.252;18.848;2022-11-15T05:16:12;24.50;;;12.80;;
62435;SDS011;48480;50.252;18.848;2022-11-15T05:18:37;24.30;;;13.20;;
62435;SDS011;48480;50.252;18.848;2022-11-15T05:21:13;25.10;;;10.50;;
62435;SDS011;48480;50.252;18.848;2022-11-15T05:23:40;30.70;;;13.10;;
62435;SDS011;48480;50.252;18.848;2022-11-15T05:26:07;30.60;;;14.30;;
62435;SDS011;48480;50.252;18.848;2022-11-15T05:28:34;26.80;;;13.90;;
62435;SDS011;48480;50.252;18.848;2022-11-15T05:31:03;23.40;;;12.50;;
62435;SDS011;48480;50.252;18.848;2022-11-15T05:33:30;28.10;;;13.00;;
62435;SDS011;48480;50.252;18.848;2022-11-15T05:36:43;22.60;;;11.10;;
62435;SDS011;48480;50.252;18.848;2022-11-15T05:39:03;27.50;;;12.40;;
62435;SDS011;48480;50.252;18.848;2022-11-15T05:41:34;25.20;;;13.30;;
62435;SDS011;48480;50.252;18.848;2022-11-15T05:44:05;25.70;;;13.50;;
62435;SDS011;48480;50.252;18.848;2022-11-15T05:46:33;24.30;;;13.10;;
62435;SDS011;48480;50.252;18.848;2022-11-15T05:49:01;24.10;;;13.30;;
62435;SDS011;48480;50.252;18.848;2022-11-15T05:51:26;22.00;;;12.00;;
62435;SDS011;48480;50.252;18.848;2022-11-15T05:53:55;21.30;;;12.10;;
62435;SDS011;48480;50.252;18.848;2022-11-15T05:56:23;21.80;;;12.10;;
62435;SDS011;48480;50.252;18.848;2022-11-15T05:58:51;22.30;;;13.10;;
62435;SDS011;48480;50.252;18.848;2022-11-15T06:01:19;23.00;;;12.70;;
62435;SDS011;48480;50.252;18.848;2022-11-15T06:03:44;26.20;;;14.10;;
62435;SDS011;48480;50.252;18.848;2022-11-15T06:06:09;22.90;;;14.40;;
62435;SDS011;48480;50.252;18.848;2022-11-15T06:08:35;21.40;;;12.80;;
62435;SDS011;48480;50.252;18.848;2022-11-15T06:11:07;23.80;;;13.30;;
62435;SDS011;48480;50.252;18.848;2022-11-15T06:13:32;23.80;;;13.80;;
62435;SDS011;48480;50.252;18.848;2022-11-15T06:15:59;23.40;;;14.60;;
62435;SDS011;48480;50.252;18.848;2022-11-15T06:18:25;24.00;;;13.50;;
62435;SDS011;48480;50.252;18.848;2022-11-15T06:20:50;21.50;;;13.60;;
62435;SDS011;48480;50.252;18.848;2022-11-15T06:23:16;23.60;;;13.60;;
62435;SDS011;48480;50.252;18.848;2022-11-15T06:25:42;23.00;;;13.50;;
62435;SDS011;48480;50.252;18.848;2022-11-15T06:28:07;25.50;;;13.30;;
62435;SDS011;48480;50.252;18.848;2022-11-15T06:30:33;23.50;;;13.70;;
62435;SDS011;48480;50.252;18.848;2022-11-15T06:33:02;22.30;;;13.30;;
62435;SDS011;48480;50.252;18.848;2022-11-15T06:35:30;23.30;;;13.10;;
62435;SDS011;48480;50.252;18.848;2022-11-15T06:38:05;24.00;;;13.20;;
62435;SDS011;48480;50.252;18.848;2022-11-15T06:40:34;27.20;;;15.20;;
62435;SDS011;48480;50.252;18.848;2022-11-15T06:43:01;26.20;;;15.60;;
62435;SDS011;48480;50.252;18.848;2022-11-15T06:45:28;24.20;;;15.00;;
62435;SDS011;48480;50.252;18.848;2022-11-15T06:47:54;21.10;;;13.50;;
62435;SDS011;48480;50.252;18.848;2022-11-15T06:50:19;23.10;;;13.60;;
62435;SDS011;48480;50.252;18.848;2022-11-15T06:52:45;21.30;;;13.70;;
62435;SDS011;48480;50.252;18.848;2022-11-15T06:55:10;23.90;;;14.40;;
62435;SDS011;48480;50.252;18.848;2022-11-15T06:57:36;21.40;;;12.70;;
62435;SDS011;48480;50.252;18.848;2022-11-15T07:00:05;23.70;;;13.50;;
62435;SDS011;48480;50.252;18.848;2022-11-15T07:02:31;19.80;;;11.60;;
62435;SDS011;48480;50.252;18.848;2022-11-15T07:04:56;28.00;;;14.30;;
62435;SDS011;48480;50.252;18.848;2022-11-15T07:07:21;26.80;;;14.50;;
62435;SDS011;48480;50.252;18.848;2022-11-15T07:09:47;24.80;;;15.10;;
62435;SDS011;48480;50.252;18.848;2022-11-15T07:12:12;24.10;;;14.10;;
62435;SDS011;48480;50.252;18.848;2022-11-15T07:14:39;50.20;;;22.90;;
62435;SDS011;48480;50.252;18.848;2022-11-15T07:17:04;71.20;;;27.50;;
62435;SDS011;48480;50.252;18.848;2022-11-15T07:19:30;33.00;;;18.50;;
62435;SDS011;48480;50.252;18.848;2022-11-15T07:21:56;37.90;;;19.10;;
62435;SDS011;48480;50.252;18.848;2022-11-15T07:24:21;31.70;;;17.50;;
62435;SDS011;48480;50.252;18.848;2022-11-15T07:26:47;35.40;;;18.00;;
62435;SDS011;48480;50.252;18.848;2022-11-15T07:29:12;28.10;;;15.10;;
62435;SDS011;48480;50.252;18.848;2022-11-15T07:31:38;28.90;;;15.80;;
62435;SDS011;48480;50.252;18.848;2022-11-15T07:34:03;27.00;;;15.80;;
62435;SDS011;48480;50.252;18.848;2022-11-15T07:36:29;27.40;;;16.50;;
62435;SDS011;48480;50.252;18.848;2022-11-15T07:38:55;29.30;;;16.70;;
62435;SDS011;48480;50.252;18.848;2022-11-15T07:41:20;27.90;;;15.70;;
62435;SDS011;48480;50.252;18.848;2022-11-15T07:43:46;24.50;;;16.80;;
62435;SDS011;48480;50.252;18.848;2022-11-15T07:46:11;25.30;;;16.70;;
62435;SDS011;48480;50.252;18.848;2022-11-15T07:48:37;28.90;;;17.60;;
62435;SDS011;48480;50.252;18.848;2022-11-15T07:51:05;28.00;;;18.10;;
62435;SDS011;48480;50.252;18.848;2022-11-15T07:53:31;26.10;;;17.60;;
62435;SDS011;48480;50.252;18.848;2022-11-15T07:55:57;44.90;;;26.90;;
62435;SDS011;48480;50.252;18.848;2022-11-15T07:58:22;29.60;;;19.80;;
62435;SDS011;48480;50.252;18.848;2022-11-15T08:00:48;33.00;;;21.50;;
62435;SDS011;48480;50.252;18.848;2022-11-15T08:03:14;26.60;;;16.50;;
62435;SDS011;48480;50.252;18.848;2022-11-15T08:05:42;29.30;;;19.60;;
62435;SDS011;48480;50.252;18.848;2022-11-15T08:08:09;27.20;;;17.40;;
62435;SDS011;48480;50.252;18.848;2022-11-15T08:10:36;26.90;;;18.10;;
62435;SDS011;48480;50.252;18.848;2022-11-15T08:13:06;28.30;;;18.40;;
62435;SDS011;48480;50.252;18.848;2022-11-15T08:15:34;29.50;;;20.40;;
62435;SDS011;48480;50.252;18.848;2022-11-15T08:18:02;27.10;;;19.60;;
62435;SDS011;48480;50.252;18.848;2022-11-15T08:20:34;30.80;;;21.70;;
62435;SDS011;48480;50.252;18.848;2022-11-15T08:23:01;33.50;;;25.10;;
62435;SDS011;48480;50.252;18.848;2022-11-15T08:25:29;30.90;;;24.70;;
62435;SDS011;48480;50.252;18.848;2022-11-15T08:27:57;35.80;;;25.20;;
62435;SDS011;48480;50.252;18.848;2022-11-15T08:30:25;40.70;;;26.60;;
62435;SDS011;48480;50.252;18.848;2022-11-15T08:32:52;40.00;;;28.30;;
62435;SDS011;48480;50.252;18.848;2022-11-15T08:35:18;36.60;;;28.90;;
62435;SDS011;48480;50.252;18.848;2022-11-15T08:37:45;29.20;;;19.90;;
62435;SDS011;48480;50.252;18.848;2022-11-15T08:40:10;26.80;;;19.00;;
62435;SDS011;48480;50.252;18.848;2022-11-15T08:42:36;28.20;;;19.70;;
62435;SDS011;48480;50.252;18.848;2022-11-15T08:45:02;26.40;;;19.10;;
62435;SDS011;48480;50.252;18.848;2022-11-15T08:47:28;26.50;;;19.10;;
62435;SDS011;48480;50.252;18.848;2022-11-15T08:49:53;26.10;;;18.40;;
62435;SDS011;48480;50.252;18.848;2022-11-15T08:52:19;29.00;;;20.20;;
62435;SDS011;48480;50.252;18.848;2022-11-15T08:54:44;27.80;;;19.40;;
62435;SDS011;48480;50.252;18.848;2022-11-15T08:57:10;26.60;;;19.20;;
62435;SDS011;48480;50.252;18.848;2022-11-15T08:59:35;29.00;;;19.70;;
62435;SDS011;48480;50.252;18.848;2022-11-15T09:02:02;29.20;;;19.60;;
62435;SDS011;48480;50.252;18.848;2022-11-15T09:04:28;31.80;;;20.40;;
62435;SDS011;48480;50.252;18.848;2022-11-15T09:06:54;31.50;;;21.00;;
62435;SDS011;48480;50.252;18.848;2022-11-15T09:09:19;28.40;;;20.40;;
62435;SDS011;48480;50.252;18.848;2022-11-15T09:11:45;27.70;;;20.80;;
62435;SDS011;48480;50.252;18.848;2022-11-15T09:14:11;32.50;;;21.40;;
62435;SDS011;48480;50.252;18.848;2022-11-15T09:16:37;26.40;;;20.70;;
62435;SDS011;48480;50.252;18.848;2022-11-15T09:19:02;29.50;;;21.20;;
62435;SDS011;48480;50.252;18.848;2022-11-15T09:21:28;29.80;;;22.10;;
62435;SDS011;48480;50.252;18.848;2022-11-15T09:23:54;30.90;;;22.60;;
62435;SDS011;48480;50.252;18.848;2022-11-15T09:26:20;29.90;;;20.70;;
62435;SDS011;48480;50.252;18.848;2022-11-15T09:28:46;28.80;;;21.30;;
62435;SDS011;48480;50.252;18.848;2022-11-15T09:31:11;29.00;;;21.70;;
62435;SDS011;48480;50.252;18.848;2022-11-15T09:33:37;30.70;;;20.50;;
62435;SDS011;48480;50.252;18.848;2022-11-15T09:36:03;30.60;;;20.00;;
62435;SDS011;48480;50.252;18.848;2022-11-15T09:38:31;28.60;;;19.80;;
62435;SDS011;48480;50.252;18.848;2022-11-15T09:48:55;25.00;;;18.70;;
62435;SDS011;48480;50.252;18.848;2022-11-15T09:51:30;26.20;;;19.80;;
62435;SDS011;48480;50.252;18.848;2022-11-15T09:54:03;22.00;;;18.40;;
62435;SDS011;48480;50.252;18.848;2022-11-15T09:56:36;24.10;;;17.50;;
62435;SDS011;48480;50.252;18.848;2022-11-15T09:59:08;23.00;;;17.60;;
62435;SDS011;48480;50.252;18.848;2022-11-15T10:04:33;22.70;;;16.70;;
62435;SDS011;48480;50.252;18.848;2022-11-15T10:07:02;24.60;;;16.10;;
62435;SDS011;48480;50.252;18.848;2022-11-15T10:09:41;21.30;;;15.90;;
62435;SDS011;48480;50.252;18.848;2022-11-15T10:12:08;24.60;;;16.70;;
62435;SDS011;48480;50.252;18.848;2022-11-15T10:14:35;20.70;;;15.50;;
62435;SDS011;48480;50.252;18.848;2022-11-15T10:22:27;21.90;;;14.80;;
62435;SDS011;48480;50.252;18.848;2022-11-15T10:27:56;23.90;;;14.30;;
62435;SDS011;48480;50.252;18.848;2022-11-15T10:30:30;20.90;;;14.10;;
62435;SDS011;48480;50.252;18.848;2022-11-15T10:32:58;21.60;;;15.30;;
62435;SDS011;48480;50.252;18.848;2022-11-15T10:35:37;23.70;;;15.50;;
62435;SDS011;48480;50.252;18.848;2022-11-15T10:38:06;21.50;;;14.90;;
62435;SDS011;48480;50.252;18.848;2022-11-15T10:40:33;22.90;;;16.80;;
62435;SDS011;48480;50.252;18.848;2022-11-15T10:45:31;24.80;;;16.90;;
62435;SDS011;48480;50.252;18.848;2022-11-15T10:48:20;26.50;;;17.30;;
62435;SDS011;48480;50.252;18.848;2022-11-15T10:50:46;25.20;;;16.70;;
62435;SDS011;48480;50.252;18.848;2022-11-15T10:55:46;24.40;;;17.40;;
62435;SDS011;48480;50.252;18.848;2022-11-15T10:58:21;25.80;;;17.20;;
62435;SDS011;48480;50.252;18.848;2022-11-15T11:01:08;25.90;;;17.00;;
62435;SDS011;48480;50.252;18.848;2022-11-15T11:03:36;24.30;;;16.00;;
62435;SDS011;48480;50.252;18.848;2022-11-15T11:06:05;23.70;;;16.00;;
62435;SDS011;48480;50.252;18.848;2022-11-15T11:08:35;23.90;;;15.30;;
62435;SDS011;48480;50.252;18.848;2022-11-15T11:11:02;21.10;;;15.50;;
62435;SDS011;48480;50.252;18.848;2022-11-15T11:21:18;27.80;;;16.50;;
62435;SDS011;48480;50.252;18.848;2022-11-15T11:23:58;27.00;;;17.50;;
62435;SDS011;48480;50.252;18.848;2022-11-15T11:32:16;24.40;;;16.40;;
62435;SDS011;48480;50.252;18.848;2022-11-15T11:35:03;24.30;;;16.30;;
62435;SDS011;48480;50.252;18.848;2022-11-15T11:37:37;28.40;;;17.90;;
62435;SDS011;48480;50.252;18.848;2022-11-15T11:40:28;29.80;;;18.40;;
62435;SDS011;48480;50.252;18.848;2022-11-15T11:43:30;24.10;;;17.40;;
62435;SDS011;48480;50.252;18.848;2022-11-15T11:48:44;27.00;;;18.30;;
62435;SDS011;48480;50.252;18.848;2022-11-15T11:51:16;28.10;;;18.40;;
62435;SDS011;48480;50.252;18.848;2022-11-15T11:54:04;25.20;;;17.20;;
62435;SDS011;48480;50.252;18.848;2022-11-15T11:56:36;27.10;;;17.80;;
62435;SDS011;48480;50.252;18.848;2022-11-15T11:59:27;27.60;;;16.90;;
62435;SDS011;48480;50.252;18.848;2022-11-15T12:02:26;25.20;;;16.20;;
62435;SDS011;48480;50.252;18.848;2022-11-15T12:05:34;21.70;;;14.90;;
62435;SDS011;48480;50.252;18.848;2022-11-15T12:07:54;23.80;;;16.50;;
62435;SDS011;48480;50.252;18.848;2022-11-15T12:10:30;24.00;;;15.80;;
62435;SDS011;48480;50.252;18.848;2022-11-15T12:13:06;25.70;;;17.90;;
62435;SDS011;48480;50.252;18.848;2022-11-15T12:15:42;22.20;;;15.50;;
62435;SDS011;48480;50.252;18.848;2022-11-15T12:18:15;18.30;;;14.30;;
62435;SDS011;48480;50.252;18.848;2022-11-15T12:20:42;22.40;;;14.40;;
62435;SDS011;48480;50.252;18.848;2022-11-15T12:23:26;24.70;;;15.30;;
62435;SDS011;48480;50.252;18.848;2022-11-15T12:26:02;22.20;;;15.20;;
62435;SDS011;48480;50.252;18.848;2022-11-15T12:34:43;24.50;;;17.10;;
62435;SDS011;48480;50.252;18.848;2022-11-15T12:45:38;23.70;;;16.50;;
62435;SDS011;48480;50.252;18.848;2022-11-15T13:07:02;32.10;;;20.20;;
62435;SDS011;48480;50.252;18.848;2022-11-15T13:11:55;31.10;;;20.30;;
62435;SDS011;48480;50.252;18.848;2022-11-15T13:14:35;33.70;;;19.90;;
62435;SDS011;48480;50.252;18.848;2022-11-15T13:17:16;26.90;;;20.10;;
62435;SDS011;48480;50.252;18.848;2022-11-15T13:19:43;29.70;;;20.90;;
62435;SDS011;48480;50.252;18.848;2022-11-15T13:22:11;31.80;;;21.70;;
62435;SDS011;48480;50.252;18.848;2022-11-15T13:24:55;30.70;;;20.10;;
62435;SDS011;48480;50.252;18.848;2022-11-15T13:27:21;32.70;;;19.70;;
62435;SDS011;48480;50.252;18.848;2022-11-15T13:29:47;32.10;;;21.80;;
62435;SDS011;48480;50.252;18.848;2022-11-15T13:32:13;34.90;;;23.30;;
62435;SDS011;48480;50.252;18.848;2022-11-15T13:34:44;32.60;;;22.40;;
62435;SDS011;48480;50.252;18.848;2022-11-15T13:39:50;30.40;;;21.80;;
62435;SDS011;48480;50.252;18.848;2022-11-15T13:42:16;32.30;;;22.80;;
62435;SDS011;48480;50.252;18.848;2022-11-15T13:45:00;37.10;;;25.20;;
62435;SDS011;48480;50.252;18.848;2022-11-15T13:47:27;35.60;;;24.00;;
62435;SDS011;48480;50.252;18.848;2022-11-15T13:49:58;48.70;;;27.70;;
62435;SDS011;48480;50.252;18.848;2022-11-15T13:55:05;39.80;;;23.90;;
62435;SDS011;48480;50.252;18.848;2022-11-15T13:57:48;42.90;;;26.00;;
62435;SDS011;48480;50.252;18.848;2022-11-15T14:03:08;43.40;;;26.70;;
62435;SDS011;48480;50.252;18.848;2022-11-15T14:05:58;39.00;;;23.80;;
62435;SDS011;48480;50.252;18.848;2022-11-15T14:08:37;41.50;;;25.50;;
62435;SDS011;48480;50.252;18.848;2022-11-15T14:11:06;44.30;;;27.40;;
62435;SDS011;48480;50.252;18.848;2022-11-15T14:14:02;41.10;;;25.60;;
62435;SDS011;48480;50.252;18.848;2022-11-15T14:19:03;41.60;;;27.40;;
62435;SDS011;48480;50.252;18.848;2022-11-15T14:21:30;38.70;;;26.60;;
62435;SDS011;48480;50.252;18.848;2022-11-15T14:24:15;39.60;;;25.10;;
62435;SDS011;48480;50.252;18.848;2022-11-15T14:26:42;35.30;;;25.30;;
62435;SDS011;48480;50.252;18.848;2022-11-15T14:29:27;35.20;;;23.50;;
62435;SDS011;48480;50.252;18.848;2022-11-15T14:31:54;38.30;;;22.20;;
62435;SDS011;48480;50.252;18.848;2022-11-15T14:34:39;35.70;;;22.80;;
62435;SDS011;48480;50.252;18.848;2022-11-15T14:37:04;34.40;;;22.70;;
62435;SDS011;48480;50.252;18.848;2022-11-15T14:39:30;34.30;;;22.30;;
62435;SDS011;48480;50.252;18.848;2022-11-15T14:41:55;34.70;;;23.10;;
62435;SDS011;48480;50.252;18.848;2022-11-15T14:44:21;35.60;;;23.20;;
62435;SDS011;48480;50.252;18.848;2022-11-15T14:46:47;37.80;;;23.60;;
62435;SDS011;48480;50.252;18.848;2022-11-15T14:49:13;37.20;;;22.70;;
62435;SDS011;48480;50.252;18.848;2022-11-15T14:51:40;38.60;;;23.20;;
62435;SDS011;48480;50.252;18.848;2022-11-15T14:54:09;39.20;;;26.00;;
62435;SDS011;48480;50.252;18.848;2022-11-15T14:56:35;40.00;;;24.90;;
62435;SDS011;48480;50.252;18.848;2022-11-15T14:59:01;39.50;;;24.80;;
62435;SDS011;48480;50.252;18.848;2022-11-15T15:01:26;35.20;;;24.90;;
62435;SDS011;48480;50.252;18.848;2022-11-15T15:03:52;40.40;;;25.30;;
62435;SDS011;48480;50.252;18.848;2022-11-15T15:06:21;37.00;;;24.90;;
62435;SDS011;48480;50.252;18.848;2022-11-15T15:08:48;37.80;;;25.20;;
62435;SDS011;48480;50.252;18.848;2022-11-15T15:11:20;37.20;;;25.00;;
62435;SDS011;48480;50.252;18.848;2022-11-15T15:13:51;38.80;;;25.30;;
62435;SDS011;48480;50.252;18.848;2022-11-15T15:16:17;41.20;;;27.40;;
62435;SDS011;48480;50.252;18.848;2022-11-15T15:18:43;42.80;;;28.20;;
62435;SDS011;48480;50.252;18.848;2022-11-15T15:21:42;39.80;;;25.60;;
62435;SDS011;48480;50.252;18.848;2022-11-15T15:24:00;42.30;;;26.80;;
62435;SDS011;48480;50.252;18.848;2022-11-15T15:26:27;43.10;;;28.20;;
62435;SDS011;48480;50.252;18.848;2022-11-15T15:28:52;40.60;;;26.20;;
62435;SDS011;48480;50.252;18.848;2022-11-15T15:31:18;36.70;;;25.80;;
62435;SDS011;48480;50.252;18.848;2022-11-15T15:33:43;39.90;;;25.70;;
62435;SDS011;48480;50.252;18.848;2022-11-15T15:36:13;36.10;;;25.60;;
62435;SDS011;48480;50.252;18.848;2022-11-15T15:38:43;40.00;;;29.80;;
62435;SDS011;48480;50.252;18.848;2022-11-15T15:41:13;50.70;;;33.10;;
62435;SDS011;48480;50.252;18.848;2022-11-15T15:43:40;45.10;;;31.50;;
62435;SDS011;48480;50.252;18.848;2022-11-15T15:46:11;42.00;;;26.80;;
62435;SDS011;48480;50.252;18.848;2022-11-15T15:48:39;38.90;;;26.40;;
62435;SDS011;48480;50.252;18.848;2022-11-15T15:51:05;38.30;;;26.00;;
62435;SDS011;48480;50.252;18.848;2022-11-15T15:53:30;41.20;;;26.90;;
62435;SDS011;48480;50.252;18.848;2022-11-15T15:55:56;40.90;;;26.70;;
62435;SDS011;48480;50.252;18.848;2022-11-15T15:58:22;40.60;;;26.30;;
62435;SDS011;48480;50.252;18.848;2022-11-15T16:00:47;39.90;;;25.30;;
62435;SDS011;48480;50.252;18.848;2022-11-15T16:03:13;43.60;;;25.80;;
62435;SDS011;48480;50.252;18.848;2022-11-15T16:05:38;36.70;;;25.00;;
62435;SDS011;48480;50.252;18.848;2022-11-15T16:08:04;38.90;;;26.40;;
62435;SDS011;48480;50.252;18.848;2022-11-15T16:10:33;37.80;;;26.30;;
62435;SDS011;48480;50.252;18.848;2022-11-15T16:12:59;43.10;;;26.60;;
62435;SDS011;48480;50.252;18.848;2022-11-15T16:15:26;40.60;;;26.90;;
62435;SDS011;48480;50.252;18.848;2022-11-15T16:17:59;41.40;;;28.70;;
62435;SDS011;48480;50.252;18.848;2022-11-15T16:20:36;40.00;;;26.10;;
62435;SDS011;48480;50.252;18.848;2022-11-15T16:23:28;39.60;;;27.00;;
62435;SDS011;48480;50.252;18.848;2022-11-15T16:25:54;45.70;;;27.70;;